createdAt,value
2023-05-03T00:00:13.744Z,12.46
2023-05-03T00:03:04.822Z,12.44
2023-05-03T00:05:35.029Z,12.47
2023-05-03T00:08:04.701Z,12.46
2023-05-03T00:10:33.350Z,12.45
2023-05-03T00:13:02.321Z,12.51
2023-05-03T00:15:31.172Z,12.47
2023-05-03T00:18:00.231Z,12.50
2023-05-03T00:20:29.016Z,12.51
2023-05-03T00:22:59.316Z,12.52
2023-05-03T00:25:27.935Z,12.50
2023-05-03T00:27:57.554Z,12.51
2023-05-03T00:30:26.726Z,12.52
2023-05-03T00:32:55.809Z,12.52
2023-05-03T00:35:24.700Z,12.52
2023-05-03T00:37:53.697Z,12.53
2023-05-03T00:40:23.690Z,12.54
2023-05-03T00:42:52.762Z,12.54
2023-05-03T00:45:21.497Z,12.53
2023-05-03T00:47:50.731Z,12.57
2023-05-03T00:50:19.849Z,12.59
2023-05-03T00:52:49.255Z,12.57
2023-05-03T00:55:18.555Z,12.56
2023-05-03T00:57:48.884Z,12.51
2023-05-03T01:00:18.495Z,12.46
2023-05-03T01:02:47.534Z,12.42
2023-05-03T01:05:16.786Z,12.37
2023-05-03T01:07:56.541Z,12.25
2023-05-03T01:10:39.702Z,12.16
2023-05-03T01:13:36.577Z,12.06
2023-05-03T01:16:17.390Z,11.97
2023-05-03T01:18:49.801Z,11.87
2023-05-03T01:21:20.318Z,11.79
2023-05-03T01:24:00.821Z,11.72
2023-05-03T01:26:30.931Z,11.67
2023-05-03T01:29:00.291Z,11.61
2023-05-03T01:31:36.070Z,11.56
2023-05-03T01:34:23.150Z,11.52
2023-05-03T01:36:57.515Z,11.45
2023-05-03T01:39:36.994Z,11.44
2023-05-03T01:42:07.509Z,11.38
2023-05-03T01:44:37.986Z,11.34
2023-05-03T01:47:08.836Z,11.26
2023-05-03T01:49:37.959Z,11.21
2023-05-03T01:52:06.889Z,11.20
2023-05-03T01:54:35.822Z,11.18
2023-05-03T01:57:05.909Z,11.18
2023-05-03T01:59:34.891Z,11.15
2023-05-03T02:02:03.582Z,11.15
2023-05-03T02:04:32.710Z,11.14
2023-05-03T02:07:01.523Z,11.17
2023-05-03T02:09:30.761Z,11.18
2023-05-03T02:11:59.425Z,11.23
2023-05-03T02:14:29.804Z,11.26
2023-05-03T02:16:59.261Z,11.28
2023-05-03T02:19:28.352Z,11.28
2023-05-03T02:21:58.426Z,11.30
2023-05-03T02:24:27.334Z,11.31
2023-05-03T02:26:56.054Z,11.29
2023-05-03T02:29:25.056Z,11.31
2023-05-03T02:31:56.468Z,11.28
2023-05-03T02:34:25.500Z,11.22
2023-05-03T02:36:54.519Z,11.16
2023-05-03T02:39:23.797Z,11.19
2023-05-03T02:41:53.158Z,11.17
2023-05-03T02:44:22.257Z,11.11
2023-05-03T02:46:52.388Z,11.09
2023-05-03T02:49:23.240Z,11.09
2023-05-03T02:51:53.049Z,11.12
2023-05-03T02:54:22.020Z,11.10
2023-05-03T02:56:51.123Z,11.08
2023-05-03T02:59:20.060Z,11.09
2023-05-03T03:01:48.894Z,11.10
2023-05-03T03:04:18.702Z,11.14
2023-05-03T03:06:48.719Z,11.16
2023-05-03T03:09:18.042Z,11.13
2023-05-03T03:11:47.763Z,11.16
2023-05-03T03:14:18.463Z,11.14
2023-05-03T03:16:47.522Z,11.13
2023-05-03T03:19:16.498Z,11.06
2023-05-03T03:21:45.228Z,10.98
2023-05-03T03:24:15.814Z,10.98
2023-05-03T03:26:44.850Z,11.01
2023-05-03T03:29:13.799Z,11.06
2023-05-03T03:31:45.086Z,11.04
2023-05-03T03:34:15.167Z,11.04
2023-05-03T03:36:44.131Z,11.05
2023-05-03T03:39:13.270Z,10.95
2023-05-03T03:41:45.024Z,10.95
2023-05-03T03:44:14.039Z,10.92
2023-05-03T03:46:42.938Z,10.94
2023-05-03T03:49:12.084Z,10.92
2023-05-03T03:51:40.959Z,10.94
2023-05-03T03:54:10.317Z,10.92
2023-05-03T03:56:45.327Z,10.87
2023-05-03T03:59:14.516Z,10.87
2023-05-03T04:01:43.379Z,10.86
2023-05-03T04:04:13.206Z,10.82
2023-05-03T04:06:43.747Z,10.82
2023-05-03T04:09:17.230Z,10.83
2023-05-03T04:11:47.941Z,10.82
2023-05-03T04:14:16.932Z,10.79
2023-05-03T04:16:46.925Z,10.80
2023-05-03T04:19:15.930Z,10.84
2023-05-03T04:21:44.689Z,10.78
2023-05-03T04:24:17.576Z,10.85
2023-05-03T04:26:48.698Z,10.88
2023-05-03T04:29:24.411Z,10.89
2023-05-03T04:31:53.253Z,10.88
2023-05-03T04:34:22.470Z,10.87
2023-05-03T04:36:54.721Z,10.91
2023-05-03T04:39:24.742Z,10.95
2023-05-03T04:41:56.540Z,11.07
2023-05-03T04:44:26.219Z,11.08
2023-05-03T04:46:56.090Z,11.13
2023-05-03T04:49:27.962Z,11.14
2023-05-03T04:51:56.708Z,11.16
2023-05-03T04:54:27.630Z,11.22
2023-05-03T04:56:58.292Z,11.26
2023-05-03T04:59:27.477Z,11.23
2023-05-03T05:01:56.324Z,11.20
2023-05-03T05:04:26.610Z,11.22
2023-05-03T05:06:56.095Z,11.37
2023-05-03T05:09:31.281Z,11.37
2023-05-03T05:12:04.185Z,11.44
2023-05-03T05:14:38.408Z,11.42
2023-05-03T05:17:09.653Z,11.37
2023-05-03T05:19:38.786Z,11.40
2023-05-03T05:22:08.016Z,11.48
2023-05-03T05:24:51.716Z,11.58
2023-05-03T05:27:23.701Z,11.66
2023-05-03T05:29:55.121Z,11.76
2023-05-03T05:32:23.892Z,11.77
2023-05-03T05:34:55.535Z,11.85
2023-05-03T05:37:27.529Z,12.04
2023-05-03T05:39:59.714Z,12.24
2023-05-03T05:42:33.532Z,12.34
2023-05-03T05:45:02.722Z,12.51
2023-05-03T05:47:31.538Z,12.71
2023-05-03T05:50:01.697Z,12.93
2023-05-03T05:52:32.715Z,13.12
2023-05-03T05:55:01.990Z,13.33
2023-05-03T05:57:30.819Z,13.33
2023-05-03T06:00:01.939Z,13.50
2023-05-03T06:02:32.493Z,13.59
2023-05-03T06:05:02.405Z,13.72
2023-05-03T06:07:31.421Z,13.76
2023-05-03T06:10:00.420Z,13.89
2023-05-03T06:12:29.327Z,14.05
2023-05-03T06:15:02.847Z,14.18
2023-05-03T06:17:38.594Z,14.22
2023-05-03T06:20:11.915Z,14.25
2023-05-03T06:22:42.422Z,14.25
2023-05-03T06:25:15.411Z,14.50
2023-05-03T06:27:47.857Z,14.66
2023-05-03T06:30:17.752Z,14.62
2023-05-03T06:32:50.494Z,14.69
2023-05-03T06:35:21.862Z,14.65
2023-05-03T06:37:52.172Z,14.62
2023-05-03T06:40:22.836Z,14.67
2023-05-03T06:42:51.549Z,14.83
2023-05-03T06:45:52.209Z,15.00
2023-05-03T06:48:22.415Z,15.25
2023-05-03T06:50:51.575Z,15.29
2023-05-03T06:53:20.279Z,15.14
2023-05-03T06:55:49.203Z,15.18
2023-05-03T06:58:17.947Z,15.34
2023-05-03T07:00:46.868Z,15.31
2023-05-03T07:03:15.616Z,15.32
2023-05-03T07:05:46.593Z,15.40
2023-05-03T07:08:15.501Z,15.64
2023-05-03T07:10:47.479Z,15.61
2023-05-03T07:13:16.259Z,15.40
2023-05-03T07:15:46.090Z,15.34
2023-05-03T07:18:15.018Z,15.44
2023-05-03T07:20:46.543Z,15.28
2023-05-03T07:23:15.552Z,15.19
2023-05-03T07:25:45.739Z,14.97
2023-05-03T07:28:14.454Z,14.84
2023-05-03T07:30:43.352Z,14.95
2023-05-03T07:33:12.300Z,15.05
2023-05-03T07:35:41.368Z,15.25
2023-05-03T07:38:11.331Z,15.45
2023-05-03T07:40:40.527Z,15.56
2023-05-03T07:43:10.156Z,15.40
2023-05-03T07:45:39.688Z,15.40
2023-05-03T07:48:08.592Z,15.48
2023-05-03T07:50:37.621Z,15.22
2023-05-03T07:53:06.271Z,15.16
2023-05-03T07:55:37.921Z,15.12
2023-05-03T07:58:06.864Z,15.05
2023-05-03T08:00:36.007Z,15.13
2023-05-03T08:03:06.429Z,15.32
2023-05-03T08:05:36.647Z,15.39
2023-05-03T08:08:05.949Z,15.41
2023-05-03T08:10:38.022Z,15.55
2023-05-03T08:13:07.068Z,15.49
2023-05-03T08:15:36.055Z,15.44
2023-05-03T08:18:05.100Z,15.33
2023-05-03T08:20:36.859Z,15.08
2023-05-03T08:23:05.557Z,14.91
2023-05-03T08:25:37.236Z,14.83
2023-05-03T08:28:07.207Z,15.01
2023-05-03T08:30:36.998Z,15.10
2023-05-03T08:33:05.813Z,15.39
2023-05-03T08:35:34.755Z,15.47
2023-05-03T08:38:05.132Z,15.40
2023-05-03T08:40:37.468Z,15.20
2023-05-03T08:43:11.278Z,14.92
2023-05-03T08:45:40.225Z,14.87
2023-05-03T08:48:09.044Z,14.99
2023-05-03T08:50:42.499Z,15.28
2023-05-03T08:53:12.061Z,15.39
2023-05-03T08:55:41.854Z,15.61
2023-05-03T08:58:12.946Z,15.90
2023-05-03T09:00:45.227Z,16.04
2023-05-03T09:03:14.494Z,15.95
2023-05-03T09:05:44.477Z,15.78
2023-05-03T09:08:14.708Z,15.73
2023-05-03T09:10:44.378Z,15.84
2023-05-03T09:13:14.416Z,16.05
2023-05-03T09:15:46.842Z,15.92
2023-05-03T09:18:20.142Z,15.85
2023-05-03T09:20:53.009Z,15.81
2023-05-03T09:23:32.430Z,15.99
2023-05-03T09:26:01.494Z,16.28
2023-05-03T09:28:41.356Z,16.47
2023-05-03T09:31:11.547Z,16.75
2023-05-03T09:33:41.962Z,17.15
2023-05-03T09:36:11.637Z,17.36
2023-05-03T09:38:40.374Z,17.43
2023-05-03T09:41:09.896Z,17.42
2023-05-03T09:43:51.371Z,17.04
2023-05-03T09:46:20.582Z,17.13
2023-05-03T09:48:50.352Z,17.41
2023-05-03T09:51:20.167Z,18.20
2023-05-03T09:53:49.940Z,18.60
2023-05-03T09:56:20.868Z,18.68
2023-05-03T09:58:51.463Z,19.00
2023-05-03T10:01:22.334Z,18.57
2023-05-03T10:03:54.421Z,18.32
2023-05-03T10:06:28.392Z,18.97
2023-05-03T10:09:08.605Z,19.51
2023-05-03T10:11:37.964Z,18.79
2023-05-03T10:14:08.521Z,19.05
2023-05-03T10:16:42.504Z,19.39
2023-05-03T10:19:18.718Z,18.41
2023-05-03T10:22:03.525Z,18.70
2023-05-03T10:24:32.816Z,19.09
2023-05-03T10:27:02.183Z,18.64
2023-05-03T10:29:54.001Z,18.46
2023-05-03T10:32:32.848Z,19.02
2023-05-03T10:35:05.915Z,20.08
2023-05-03T10:37:36.272Z,20.81
2023-05-03T10:40:13.765Z,21.17
2023-05-03T10:42:47.138Z,21.69
2023-05-03T10:45:26.274Z,21.83
2023-05-03T10:48:20.661Z,21.10
2023-05-03T10:50:51.615Z,20.93
2023-05-03T10:53:39.356Z,21.32
2023-05-03T10:56:10.916Z,21.52
2023-05-03T10:58:45.750Z,21.73
2023-05-03T11:01:18.196Z,21.75
2023-05-03T11:03:57.046Z,21.47
2023-05-03T11:06:34.500Z,21.45
2023-05-03T11:09:07.123Z,21.54
2023-05-03T11:11:39.249Z,20.83
2023-05-03T11:14:09.505Z,19.89
2023-05-03T11:16:47.762Z,19.23
2023-05-03T11:19:17.446Z,19.06
2023-05-03T11:21:47.776Z,19.25
2023-05-03T11:24:17.800Z,19.59
2023-05-03T11:26:46.508Z,19.86
2023-05-03T11:29:17.179Z,19.96
2023-05-03T11:31:47.588Z,19.57
2023-05-03T11:34:17.522Z,19.53
2023-05-03T11:36:46.228Z,19.21
2023-05-03T11:39:16.206Z,18.67
2023-05-03T11:41:45.839Z,18.43
2023-05-03T11:44:17.730Z,18.20
2023-05-03T11:46:49.646Z,18.30
2023-05-03T11:49:20.306Z,18.12
2023-05-03T11:51:51.569Z,17.93
2023-05-03T11:54:26.700Z,18.15
2023-05-03T11:57:01.959Z,19.05
2023-05-03T11:59:40.150Z,20.11
2023-05-03T12:02:15.229Z,20.60
2023-05-03T12:05:03.524Z,19.57
2023-05-03T12:07:32.993Z,18.54
2023-05-03T12:10:19.230Z,17.81
2023-05-03T12:12:56.953Z,17.42
2023-05-03T12:15:37.676Z,17.37
2023-05-03T12:18:11.037Z,17.38
2023-05-03T12:23:15.560Z,17.08
2023-05-03T12:25:45.476Z,17.04
2023-05-03T12:28:19.629Z,17.01
2023-05-03T12:30:53.263Z,16.84
2023-05-03T12:33:23.953Z,16.89
2023-05-03T12:35:54.586Z,16.98
2023-05-03T12:38:25.297Z,16.95
2023-05-03T12:40:55.060Z,16.82
2023-05-03T12:43:24.064Z,16.74
2023-05-03T12:46:15.252Z,16.82
2023-05-03T12:48:46.171Z,16.96
2023-05-03T12:51:20.047Z,16.91
2023-05-03T12:53:54.910Z,16.76
2023-05-03T12:56:25.531Z,16.46
2023-05-03T13:04:35.088Z,16.25
2023-05-03T13:06:56.447Z,16.22
2023-05-03T13:09:37.254Z,16.19
2023-05-03T13:12:18.166Z,16.38
2023-05-03T13:14:47.630Z,16.45
2023-05-03T13:17:17.218Z,16.41
2023-05-03T13:19:48.471Z,16.31
2023-05-03T13:22:18.592Z,16.29
2023-05-03T13:24:48.817Z,16.29
2023-05-03T13:27:18.904Z,16.19
2023-05-03T13:29:49.435Z,16.12
2023-05-03T13:32:19.009Z,16.24
2023-05-03T13:34:49.145Z,16.26
2023-05-03T13:37:19.344Z,16.45
2023-05-03T13:39:48.545Z,16.68
2023-05-03T13:42:17.467Z,16.90
2023-05-03T13:44:48.121Z,17.05
2023-05-03T13:47:17.098Z,17.00
2023-05-03T13:49:45.817Z,16.83
2023-05-03T13:52:16.229Z,16.62
2023-05-03T13:54:45.018Z,16.47
2023-05-03T13:57:14.033Z,16.50
2023-05-03T13:59:42.801Z,16.71
2023-05-03T14:02:12.010Z,16.86
2023-05-03T14:04:41.218Z,16.82
2023-05-03T14:07:10.296Z,16.87
2023-05-03T14:09:42.095Z,16.94
2023-05-03T14:12:11.479Z,16.95
2023-05-03T14:14:40.946Z,16.91
2023-05-03T14:17:09.945Z,16.79
2023-05-03T14:19:39.244Z,16.77
2023-05-03T14:22:08.251Z,16.85
2023-05-03T14:24:37.275Z,16.89
2023-05-03T14:27:07.625Z,16.99
2023-05-03T14:29:36.382Z,16.93
2023-05-03T14:32:06.074Z,17.01
2023-05-03T14:34:34.764Z,17.11
2023-05-03T14:37:04.022Z,17.12
2023-05-03T14:39:32.673Z,17.13
2023-05-03T14:42:03.347Z,17.20
2023-05-03T14:44:33.420Z,17.30
2023-05-03T14:47:06.892Z,17.33
2023-05-03T14:49:40.764Z,17.46
2023-05-03T14:52:09.963Z,17.54
2023-05-03T14:54:39.369Z,17.52
2023-05-03T14:57:08.808Z,17.51
2023-05-03T14:59:38.886Z,17.49
2023-05-03T15:02:08.872Z,17.49
2023-05-03T15:04:38.964Z,17.40
2023-05-03T15:07:09.221Z,17.33
2023-05-03T15:09:39.072Z,17.35
2023-05-03T15:12:08.730Z,17.34
2023-05-03T15:14:39.219Z,17.39
2023-05-03T15:17:08.172Z,17.44
2023-05-03T15:19:36.971Z,17.41
2023-05-03T15:22:05.896Z,17.41
2023-05-03T15:24:34.658Z,17.27
2023-05-03T15:27:04.601Z,17.26
2023-05-03T15:29:33.260Z,17.33
2023-05-03T15:32:03.589Z,17.38
2023-05-03T15:34:33.038Z,17.46
2023-05-03T15:37:02.092Z,17.50
2023-05-03T15:39:31.018Z,17.61
2023-05-03T15:41:59.981Z,17.63
2023-05-03T15:44:28.680Z,17.62
2023-05-03T15:46:57.592Z,17.61
2023-05-03T15:49:27.812Z,17.58
2023-05-03T15:51:56.795Z,17.65
2023-05-03T15:54:25.563Z,17.69
2023-05-03T15:56:55.247Z,17.76
2023-05-03T15:59:23.882Z,17.79
2023-05-03T16:01:53.199Z,17.74
2023-05-03T16:04:21.942Z,17.87
2023-05-03T16:06:52.279Z,18.01
2023-05-03T16:09:21.679Z,18.14
2023-05-03T16:11:50.886Z,18.25
2023-05-03T16:14:19.602Z,18.34
2023-05-03T16:16:50.392Z,18.36
2023-05-03T16:19:19.311Z,18.30
2023-05-03T16:21:48.311Z,18.13
2023-05-03T16:24:18.360Z,18.00
2023-05-03T16:26:47.246Z,17.93
2023-05-03T16:29:16.835Z,17.89
2023-05-03T16:31:46.982Z,17.93
2023-05-03T16:34:16.189Z,17.88
2023-05-03T16:36:45.384Z,17.92
2023-05-03T16:39:15.388Z,17.92
2023-05-03T16:41:45.873Z,17.93
2023-05-03T16:44:16.145Z,17.93
2023-05-03T16:46:45.263Z,17.83
2023-05-03T16:49:14.206Z,17.70
2023-05-03T16:51:43.371Z,17.64
2023-05-03T16:54:12.890Z,17.52
2023-05-03T16:56:41.850Z,17.38
2023-05-03T16:59:12.047Z,17.27
2023-05-03T17:01:41.125Z,17.07
2023-05-03T17:04:09.893Z,17.05
2023-05-03T17:06:39.385Z,17.01
2023-05-03T17:09:09.938Z,16.98
2023-05-03T17:11:39.075Z,16.89
2023-05-03T17:14:07.834Z,16.85
2023-05-03T17:16:41.315Z,16.85
2023-05-03T17:19:10.319Z,16.78
2023-05-03T17:21:39.326Z,16.68
2023-05-03T17:24:08.775Z,16.62
2023-05-03T17:26:39.494Z,16.62
2023-05-03T17:29:08.580Z,16.57
2023-05-03T17:31:38.945Z,16.47
2023-05-03T17:34:07.706Z,16.33
2023-05-03T17:36:36.801Z,16.25
2023-05-03T17:39:05.644Z,16.16
2023-05-03T17:41:38.242Z,16.04
2023-05-03T17:44:06.928Z,16.00
2023-05-03T17:46:36.557Z,15.96
2023-05-03T17:49:07.043Z,15.94
2023-05-03T17:51:36.189Z,15.90
2023-05-03T17:54:05.193Z,15.83
2023-05-03T17:56:34.259Z,15.75
2023-05-03T17:59:03.651Z,15.66
2023-05-03T18:01:32.649Z,15.61
2023-05-03T18:04:01.676Z,15.54
2023-05-03T18:06:32.528Z,15.42
2023-05-03T18:09:01.231Z,15.27
2023-05-03T18:11:30.188Z,15.17
2023-05-03T18:13:58.875Z,15.09
2023-05-03T18:16:28.794Z,15.00
2023-05-03T18:18:58.067Z,14.93
2023-05-03T18:21:27.960Z,14.83
2023-05-03T18:23:58.484Z,14.81
2023-05-03T18:26:27.514Z,14.74
2023-05-03T18:28:56.914Z,14.72
2023-05-03T18:31:26.022Z,14.68
2023-05-03T18:33:55.324Z,14.56
2023-05-03T18:36:24.350Z,14.49
2023-05-03T18:38:54.192Z,14.42
2023-05-03T18:41:24.556Z,14.31
2023-05-03T18:43:54.558Z,14.19
2023-05-03T18:46:23.612Z,14.13
2023-05-03T18:48:52.305Z,14.07
2023-05-03T18:51:21.225Z,13.96
2023-05-03T18:53:49.960Z,13.87
2023-05-03T18:56:18.984Z,13.75
2023-05-03T18:58:49.900Z,13.62
2023-05-03T19:01:18.955Z,13.51
2023-05-03T19:03:47.620Z,13.41
2023-05-03T19:06:16.544Z,13.32
2023-05-03T19:08:47.211Z,13.20
2023-05-03T19:11:18.062Z,13.05
2023-05-03T19:13:47.365Z,12.94
2023-05-03T19:16:18.019Z,12.85
2023-05-03T19:18:48.022Z,12.75
2023-05-03T19:21:17.430Z,12.66
2023-05-03T19:23:46.683Z,12.59
2023-05-03T19:26:15.641Z,12.52
2023-05-03T19:28:44.710Z,12.41
2023-05-03T19:31:13.721Z,12.38
2023-05-03T19:33:43.831Z,12.27
2023-05-03T19:36:15.012Z,12.22
2023-05-03T19:38:43.839Z,12.13
2023-05-03T19:41:12.983Z,12.06
2023-05-03T19:43:42.123Z,12.00
2023-05-03T19:46:11.242Z,11.93
2023-05-03T19:48:39.909Z,11.87
2023-05-03T19:51:14.801Z,11.79
2023-05-03T19:53:43.569Z,11.76
2023-05-03T19:56:13.409Z,11.72
2023-05-03T19:58:42.459Z,11.67
2023-05-03T20:01:11.589Z,11.58
2023-05-03T20:03:42.615Z,11.51
2023-05-03T20:06:13.567Z,11.45
2023-05-03T20:08:42.356Z,11.39
2023-05-03T20:11:11.255Z,11.37
2023-05-03T20:13:39.967Z,11.31
2023-05-03T20:16:09.172Z,11.24
2023-05-03T20:18:37.900Z,11.18
2023-05-03T20:21:06.919Z,11.13
2023-05-03T20:23:37.687Z,11.08
2023-05-03T20:26:06.726Z,11.02
2023-05-03T20:28:35.404Z,11.00
2023-05-03T20:31:04.832Z,10.95
2023-05-03T20:33:34.269Z,10.89
2023-05-03T20:36:03.562Z,10.80
2023-05-03T20:38:32.181Z,10.71
2023-05-03T20:41:02.730Z,10.70
2023-05-03T20:43:31.517Z,10.64
2023-05-03T20:46:00.673Z,10.58
2023-05-03T20:48:29.455Z,10.53
2023-05-03T20:51:00.780Z,10.46
2023-05-03T20:53:29.766Z,10.43
2023-05-03T20:56:01.621Z,10.35
2023-05-03T20:58:31.669Z,10.28
2023-05-03T21:01:03.874Z,10.22
2023-05-03T21:03:32.977Z,10.16
2023-05-03T21:06:02.013Z,10.14
2023-05-03T21:08:30.838Z,10.06
2023-05-03T21:10:59.940Z,10.02
2023-05-03T21:13:28.616Z,9.98
2023-05-03T21:15:58.875Z,9.91
2023-05-03T21:18:27.495Z,9.86
2023-05-03T21:20:56.488Z,9.83
2023-05-03T21:23:25.196Z,9.80
2023-05-03T21:25:56.221Z,9.75
2023-05-03T21:28:25.194Z,9.71
2023-05-03T21:30:55.787Z,9.65
2023-05-03T21:33:26.166Z,9.61
2023-05-03T21:35:55.138Z,9.56
2023-05-03T21:38:23.804Z,9.52
2023-05-03T21:40:52.826Z,9.46
2023-05-03T21:43:21.703Z,9.41
2023-05-03T21:45:50.662Z,9.41
2023-05-03T21:48:19.368Z,9.38
2023-05-03T21:50:49.663Z,9.33
2023-05-03T21:53:18.742Z,9.28
2023-05-03T21:55:48.336Z,9.26
2023-05-03T21:58:17.129Z,9.21
2023-05-03T22:00:46.082Z,9.18
2023-05-03T22:03:15.667Z,9.12
2023-05-03T22:05:47.848Z,9.07
2023-05-03T22:08:18.661Z,9.05
2023-05-03T22:10:47.655Z,8.97
2023-05-03T22:13:16.381Z,8.91
2023-05-03T22:15:45.527Z,8.88
2023-05-03T22:18:15.133Z,8.84
2023-05-03T22:20:44.127Z,8.80
2023-05-03T22:23:14.528Z,8.77
2023-05-03T22:25:44.975Z,8.72
2023-05-03T22:28:13.674Z,8.67
2023-05-03T22:30:42.817Z,8.61
2023-05-03T22:33:11.533Z,8.58
2023-05-03T22:35:40.772Z,8.54
2023-05-03T22:38:09.520Z,8.52
2023-05-03T22:40:38.422Z,8.48
2023-05-03T22:43:08.482Z,8.41
2023-05-03T22:45:37.653Z,8.42
2023-05-03T22:48:06.971Z,8.39
2023-05-03T22:50:36.589Z,8.38
2023-05-03T22:53:05.268Z,8.32
2023-05-03T22:55:34.284Z,8.29
2023-05-03T22:58:03.018Z,8.28
2023-05-03T23:00:33.374Z,8.23
2023-05-03T23:03:02.183Z,8.20
2023-05-03T23:05:31.199Z,8.15
2023-05-03T23:07:59.818Z,8.16
2023-05-03T23:10:28.754Z,8.13
2023-05-03T23:12:57.648Z,8.10
2023-05-03T23:15:26.682Z,8.08
2023-05-03T23:17:56.880Z,8.08
2023-05-03T23:20:26.031Z,8.01
2023-05-03T23:22:55.037Z,7.92
2023-05-03T23:25:24.052Z,7.91
2023-05-03T23:27:52.830Z,7.88
2023-05-03T23:30:22.285Z,7.83
2023-05-03T23:32:51.569Z,7.78
2023-05-03T23:35:22.709Z,7.78
2023-05-03T23:37:51.440Z,7.77
2023-05-03T23:40:20.582Z,7.72
2023-05-03T23:42:49.783Z,7.68
2023-05-03T23:45:18.936Z,7.67
2023-05-03T23:47:47.668Z,7.64
2023-05-03T23:50:16.646Z,7.59
2023-05-03T23:52:46.736Z,7.63
2023-05-03T23:55:15.820Z,7.56
2023-05-03T23:57:44.417Z,7.49
